sensor_id;sensor_type;location;lat;lon;timestamp;temperature;humidity
12682;DHT22;6405;59.208;18.216;2023-04-24T00:02:08;7.30;99.90
12682;DHT22;6405;59.208;18.216;2023-04-24T00:04:37;7.30;99.90
12682;DHT22;6405;59.208;18.216;2023-04-24T00:07:06;7.30;99.90
12682;DHT22;6405;59.208;18.216;2023-04-24T00:09:35;7.30;99.90
12682;DHT22;6405;59.208;18.216;2023-04-24T00:12:01;7.30;99.90
12682;DHT22;6405;59.208;18.216;2023-04-24T00:14:29;7.30;99.90
12682;DHT22;6405;59.208;18.216;2023-04-24T00:16:55;7.30;99.90
12682;DHT22;6405;59.208;18.216;2023-04-24T00:19:20;7.20;99.90
12682;DHT22;6405;59.208;18.216;2023-04-24T00:21:47;7.30;99.90
12682;DHT22;6405;59.208;18.216;2023-04-24T00:24:15;7.30;99.90
12682;DHT22;6405;59.208;18.216;2023-04-24T00:26:41;7.20;99.90
12682;DHT22;6405;59.208;18.216;2023-04-24T00:29:07;7.20;99.90
12682;DHT22;6405;59.208;18.216;2023-04-24T00:31:32;7.20;99.90
12682;DHT22;6405;59.208;18.216;2023-04-24T00:34:01;7.20;99.90
12682;DHT22;6405;59.208;18.216;2023-04-24T00:36:28;7.20;99.90
12682;DHT22;6405;59.208;18.216;2023-04-24T00:38:54;7.20;99.90
12682;DHT22;6405;59.208;18.216;2023-04-24T00:41:20;7.20;99.90
12682;DHT22;6405;59.208;18.216;2023-04-24T00:43:46;7.20;99.90
12682;DHT22;6405;59.208;18.216;2023-04-24T00:46:12;7.20;99.90
12682;DHT22;6405;59.208;18.216;2023-04-24T00:48:41;7.20;99.90
12682;DHT22;6405;59.208;18.216;2023-04-24T00:51:07;7.20;99.90
12682;DHT22;6405;59.208;18.216;2023-04-24T00:53:33;7.20;99.90
12682;DHT22;6405;59.208;18.216;2023-04-24T00:55:59;7.20;99.90
12682;DHT22;6405;59.208;18.216;2023-04-24T00:58:25;7.10;99.90
12682;DHT22;6405;59.208;18.216;2023-04-24T01:00:53;7.10;99.90
12682;DHT22;6405;59.208;18.216;2023-04-24T01:03:25;7.10;99.90
12682;DHT22;6405;59.208;18.216;2023-04-24T01:05:52;7.10;99.90
12682;DHT22;6405;59.208;18.216;2023-04-24T01:08:21;7.10;99.90
12682;DHT22;6405;59.208;18.216;2023-04-24T01:10:48;7.10;99.90
12682;DHT22;6405;59.208;18.216;2023-04-24T01:13:15;7.20;99.90
12682;DHT22;6405;59.208;18.216;2023-04-24T01:15:40;7.20;99.90
12682;DHT22;6405;59.208;18.216;2023-04-24T01:18:06;7.20;99.90
12682;DHT22;6405;59.208;18.216;2023-04-24T01:20:32;7.10;99.90
12682;DHT22;6405;59.208;18.216;2023-04-24T01:22:59;7.20;99.90
12682;DHT22;6405;59.208;18.216;2023-04-24T01:25:25;7.10;99.90
12682;DHT22;6405;59.208;18.216;2023-04-24T01:27:54;7.20;99.90
12682;DHT22;6405;59.208;18.216;2023-04-24T01:30:20;7.20;99.90
12682;DHT22;6405;59.208;18.216;2023-04-24T01:32:46;7.20;99.90
12682;DHT22;6405;59.208;18.216;2023-04-24T01:35:11;7.20;99.90
12682;DHT22;6405;59.208;18.216;2023-04-24T01:37:37;7.20;99.90
12682;DHT22;6405;59.208;18.216;2023-04-24T01:40:05;7.10;99.90
12682;DHT22;6405;59.208;18.216;2023-04-24T01:42:32;7.10;99.90
12682;DHT22;6405;59.208;18.216;2023-04-24T01:44:58;7.10;99.90
12682;DHT22;6405;59.208;18.216;2023-04-24T01:47:24;7.10;99.90
12682;DHT22;6405;59.208;18.216;2023-04-24T01:49:50;7.10;99.90
12682;DHT22;6405;59.208;18.216;2023-04-24T01:52:16;7.10;99.90
12682;DHT22;6405;59.208;18.216;2023-04-24T01:54:44;7.10;99.90
12682;DHT22;6405;59.208;18.216;2023-04-24T01:57:10;7.00;99.90
12682;DHT22;6405;59.208;18.216;2023-04-24T01:59:36;7.00;99.90
12682;DHT22;6405;59.208;18.216;2023-04-24T02:02:02;6.90;99.90
12682;DHT22;6405;59.208;18.216;2023-04-24T02:04:28;6.90;99.90
12682;DHT22;6405;59.208;18.216;2023-04-24T02:06:54;6.80;99.90
12682;DHT22;6405;59.208;18.216;2023-04-24T02:09:19;6.90;99.90
12682;DHT22;6405;59.208;18.216;2023-04-24T02:11:45;6.80;99.90
12682;DHT22;6405;59.208;18.216;2023-04-24T02:14:11;6.90;99.90
12682;DHT22;6405;59.208;18.216;2023-04-24T02:16:36;6.80;99.90
12682;DHT22;6405;59.208;18.216;2023-04-24T02:19:03;6.80;99.90
12682;DHT22;6405;59.208;18.216;2023-04-24T02:21:28;6.80;99.90
12682;DHT22;6405;59.208;18.216;2023-04-24T02:23:54;6.70;99.90
12682;DHT22;6405;59.208;18.216;2023-04-24T02:26:20;6.80;99.90
12682;DHT22;6405;59.208;18.216;2023-04-24T02:28:46;6.70;99.90
12682;DHT22;6405;59.208;18.216;2023-04-24T02:31:11;6.70;99.90
12682;DHT22;6405;59.208;18.216;2023-04-24T02:33:37;6.60;99.90
12682;DHT22;6405;59.208;18.216;2023-04-24T02:36:02;6.60;99.90
12682;DHT22;6405;59.208;18.216;2023-04-24T02:38:29;6.60;99.90
12682;DHT22;6405;59.208;18.216;2023-04-24T02:40:55;6.60;99.90
12682;DHT22;6405;59.208;18.216;2023-04-24T02:43:20;6.50;99.90
12682;DHT22;6405;59.208;18.216;2023-04-24T02:45:46;6.50;99.90
12682;DHT22;6405;59.208;18.216;2023-04-24T02:48:12;6.40;99.90
12682;DHT22;6405;59.208;18.216;2023-04-24T02:50:37;6.40;99.90
12682;DHT22;6405;59.208;18.216;2023-04-24T02:53:03;6.40;99.90
12682;DHT22;6405;59.208;18.216;2023-04-24T02:55:29;6.30;99.90
12682;DHT22;6405;59.208;18.216;2023-04-24T02:57:54;6.20;99.90
12682;DHT22;6405;59.208;18.216;2023-04-24T03:00:20;6.30;99.90
12682;DHT22;6405;59.208;18.216;2023-04-24T03:02:46;6.30;99.90
12682;DHT22;6405;59.208;18.216;2023-04-24T03:05:12;6.30;99.90
12682;DHT22;6405;59.208;18.216;2023-04-24T03:07:38;6.20;99.90
12682;DHT22;6405;59.208;18.216;2023-04-24T03:10:04;6.20;99.90
12682;DHT22;6405;59.208;18.216;2023-04-24T03:12:31;6.30;99.90
12682;DHT22;6405;59.208;18.216;2023-04-24T03:14:56;6.20;99.90
12682;DHT22;6405;59.208;18.216;2023-04-24T03:17:22;6.20;99.90
12682;DHT22;6405;59.208;18.216;2023-04-24T03:19:48;6.20;99.90
12682;DHT22;6405;59.208;18.216;2023-04-24T03:22:13;6.20;99.90
12682;DHT22;6405;59.208;18.216;2023-04-24T03:24:39;6.20;99.90
12682;DHT22;6405;59.208;18.216;2023-04-24T03:27:05;6.20;99.90
12682;DHT22;6405;59.208;18.216;2023-04-24T03:29:31;6.20;99.90
12682;DHT22;6405;59.208;18.216;2023-04-24T03:31:56;6.20;99.90
12682;DHT22;6405;59.208;18.216;2023-04-24T03:34:22;6.20;99.90
12682;DHT22;6405;59.208;18.216;2023-04-24T03:36:48;6.30;99.90
12682;DHT22;6405;59.208;18.216;2023-04-24T03:39:13;6.30;99.90
12682;DHT22;6405;59.208;18.216;2023-04-24T03:41:39;6.20;99.90
12682;DHT22;6405;59.208;18.216;2023-04-24T03:44:05;6.30;99.90
12682;DHT22;6405;59.208;18.216;2023-04-24T03:46:31;6.20;99.90
12682;DHT22;6405;59.208;18.216;2023-04-24T03:48:56;6.30;99.90
12682;DHT22;6405;59.208;18.216;2023-04-24T03:51:22;6.30;99.90
12682;DHT22;6405;59.208;18.216;2023-04-24T03:53:48;6.30;99.90
12682;DHT22;6405;59.208;18.216;2023-04-24T03:56:14;6.30;99.90
12682;DHT22;6405;59.208;18.216;2023-04-24T03:58:42;6.30;99.90
12682;DHT22;6405;59.208;18.216;2023-04-24T04:01:08;6.30;99.90
12682;DHT22;6405;59.208;18.216;2023-04-24T04:03:33;6.30;99.90
12682;DHT22;6405;59.208;18.216;2023-04-24T04:05:59;6.30;99.90
12682;DHT22;6405;59.208;18.216;2023-04-24T04:08:25;6.20;99.90
12682;DHT22;6405;59.208;18.216;2023-04-24T04:10:51;6.20;99.90
12682;DHT22;6405;59.208;18.216;2023-04-24T04:13:17;6.20;99.90
12682;DHT22;6405;59.208;18.216;2023-04-24T04:15:43;6.10;99.90
12682;DHT22;6405;59.208;18.216;2023-04-24T04:18:08;6.00;99.90
12682;DHT22;6405;59.208;18.216;2023-04-24T04:20:34;6.00;99.90
12682;DHT22;6405;59.208;18.216;2023-04-24T04:23:00;6.00;99.90
12682;DHT22;6405;59.208;18.216;2023-04-24T04:25:25;6.00;99.90
12682;DHT22;6405;59.208;18.216;2023-04-24T04:27:51;5.90;99.90
12682;DHT22;6405;59.208;18.216;2023-04-24T04:30:18;5.90;99.90
12682;DHT22;6405;59.208;18.216;2023-04-24T04:32:44;5.80;99.90
12682;DHT22;6405;59.208;18.216;2023-04-24T04:35:09;5.80;99.90
12682;DHT22;6405;59.208;18.216;2023-04-24T04:37:35;5.70;99.90
12682;DHT22;6405;59.208;18.216;2023-04-24T04:40:02;5.80;99.90
12682;DHT22;6405;59.208;18.216;2023-04-24T04:42:32;5.80;99.90
12682;DHT22;6405;59.208;18.216;2023-04-24T04:45:00;5.80;99.90
12682;DHT22;6405;59.208;18.216;2023-04-24T04:47:26;5.80;99.90
12682;DHT22;6405;59.208;18.216;2023-04-24T04:49:52;5.70;99.90
12682;DHT22;6405;59.208;18.216;2023-04-24T04:52:18;5.60;99.90
12682;DHT22;6405;59.208;18.216;2023-04-24T04:54:44;5.70;99.90
12682;DHT22;6405;59.208;18.216;2023-04-24T04:57:10;5.60;99.90
12682;DHT22;6405;59.208;18.216;2023-04-24T04:59:36;5.50;99.90
12682;DHT22;6405;59.208;18.216;2023-04-24T05:02:02;5.60;99.90
12682;DHT22;6405;59.208;18.216;2023-04-24T05:04:28;5.50;99.90
12682;DHT22;6405;59.208;18.216;2023-04-24T05:06:53;5.60;99.90
12682;DHT22;6405;59.208;18.216;2023-04-24T05:09:19;5.60;99.90
12682;DHT22;6405;59.208;18.216;2023-04-24T05:11:45;5.50;99.90
12682;DHT22;6405;59.208;18.216;2023-04-24T05:14:10;5.50;99.90
12682;DHT22;6405;59.208;18.216;2023-04-24T05:16:38;5.60;99.90
12682;DHT22;6405;59.208;18.216;2023-04-24T05:19:04;5.60;99.90
12682;DHT22;6405;59.208;18.216;2023-04-24T05:21:30;5.60;99.90
12682;DHT22;6405;59.208;18.216;2023-04-24T05:23:56;5.60;99.90
12682;DHT22;6405;59.208;18.216;2023-04-24T05:26:22;5.50;99.90
12682;DHT22;6405;59.208;18.216;2023-04-24T05:28:48;5.50;99.90
12682;DHT22;6405;59.208;18.216;2023-04-24T05:31:14;5.60;99.90
12682;DHT22;6405;59.208;18.216;2023-04-24T05:33:39;5.60;99.90
12682;DHT22;6405;59.208;18.216;2023-04-24T05:36:06;5.60;99.90
12682;DHT22;6405;59.208;18.216;2023-04-24T05:38:32;5.50;99.90
12682;DHT22;6405;59.208;18.216;2023-04-24T05:40:57;5.60;99.90
12682;DHT22;6405;59.208;18.216;2023-04-24T05:43:23;5.60;99.90
12682;DHT22;6405;59.208;18.216;2023-04-24T05:45:49;5.60;99.90
12682;DHT22;6405;59.208;18.216;2023-04-24T05:48:14;5.60;99.90
12682;DHT22;6405;59.208;18.216;2023-04-24T05:50:41;5.50;99.90
12682;DHT22;6405;59.208;18.216;2023-04-24T05:53:06;5.50;99.90
12682;DHT22;6405;59.208;18.216;2023-04-24T05:55:32;5.60;99.90
12682;DHT22;6405;59.208;18.216;2023-04-24T05:57:58;5.60;99.90
12682;DHT22;6405;59.208;18.216;2023-04-24T06:00:24;5.60;99.90
12682;DHT22;6405;59.208;18.216;2023-04-24T06:02:50;5.70;99.90
12682;DHT22;6405;59.208;18.216;2023-04-24T06:05:16;5.70;99.90
12682;DHT22;6405;59.208;18.216;2023-04-24T06:07:43;5.70;99.90
12682;DHT22;6405;59.208;18.216;2023-04-24T06:10:09;5.70;99.90
12682;DHT22;6405;59.208;18.216;2023-04-24T06:12:35;5.60;99.90
12682;DHT22;6405;59.208;18.216;2023-04-24T06:15:00;5.70;99.90
12682;DHT22;6405;59.208;18.216;2023-04-24T06:17:27;5.60;99.90
12682;DHT22;6405;59.208;18.216;2023-04-24T06:19:52;5.70;99.90
12682;DHT22;6405;59.208;18.216;2023-04-24T06:22:18;5.70;99.90
12682;DHT22;6405;59.208;18.216;2023-04-24T06:24:43;5.70;99.90
12682;DHT22;6405;59.208;18.216;2023-04-24T06:27:09;5.70;99.90
12682;DHT22;6405;59.208;18.216;2023-04-24T06:29:36;5.70;99.90
12682;DHT22;6405;59.208;18.216;2023-04-24T06:32:01;5.60;99.90
12682;DHT22;6405;59.208;18.216;2023-04-24T06:34:27;5.60;99.90
12682;DHT22;6405;59.208;18.216;2023-04-24T06:36:54;5.60;99.90
12682;DHT22;6405;59.208;18.216;2023-04-24T06:39:20;5.70;99.90
12682;DHT22;6405;59.208;18.216;2023-04-24T06:41:46;5.70;99.90
12682;DHT22;6405;59.208;18.216;2023-04-24T06:44:11;5.70;99.90
12682;DHT22;6405;59.208;18.216;2023-04-24T06:46:37;5.60;99.90
12682;DHT22;6405;59.208;18.216;2023-04-24T06:49:03;5.60;99.90
12682;DHT22;6405;59.208;18.216;2023-04-24T06:51:28;5.60;99.90
12682;DHT22;6405;59.208;18.216;2023-04-24T06:53:54;5.60;99.90
12682;DHT22;6405;59.208;18.216;2023-04-24T06:56:21;5.50;99.90
12682;DHT22;6405;59.208;18.216;2023-04-24T06:58:47;5.40;99.90
12682;DHT22;6405;59.208;18.216;2023-04-24T07:01:13;5.50;99.90
12682;DHT22;6405;59.208;18.216;2023-04-24T07:03:39;5.50;99.90
12682;DHT22;6405;59.208;18.216;2023-04-24T07:06:05;5.50;99.90
12682;DHT22;6405;59.208;18.216;2023-04-24T07:08:30;5.50;99.90
12682;DHT22;6405;59.208;18.216;2023-04-24T07:10:57;5.50;99.90
12682;DHT22;6405;59.208;18.216;2023-04-24T07:13:23;5.40;99.90
12682;DHT22;6405;59.208;18.216;2023-04-24T07:15:49;5.50;99.90
12682;DHT22;6405;59.208;18.216;2023-04-24T07:18:20;5.50;99.90
12682;DHT22;6405;59.208;18.216;2023-04-24T07:20:46;5.60;99.90
12682;DHT22;6405;59.208;18.216;2023-04-24T07:23:12;5.50;99.90
12682;DHT22;6405;59.208;18.216;2023-04-24T07:25:38;5.60;99.90
12682;DHT22;6405;59.208;18.216;2023-04-24T07:28:04;5.50;99.90
12682;DHT22;6405;59.208;18.216;2023-04-24T07:30:31;5.50;99.90
12682;DHT22;6405;59.208;18.216;2023-04-24T07:32:58;5.60;99.90
12682;DHT22;6405;59.208;18.216;2023-04-24T07:35:24;5.60;99.90
12682;DHT22;6405;59.208;18.216;2023-04-24T07:37:52;5.70;99.90
12682;DHT22;6405;59.208;18.216;2023-04-24T07:40:18;5.70;99.90
12682;DHT22;6405;59.208;18.216;2023-04-24T07:42:44;5.70;99.90
12682;DHT22;6405;59.208;18.216;2023-04-24T07:45:09;5.70;99.90
12682;DHT22;6405;59.208;18.216;2023-04-24T07:47:35;5.70;99.90
12682;DHT22;6405;59.208;18.216;2023-04-24T07:50:02;5.80;99.90
12682;DHT22;6405;59.208;18.216;2023-04-24T07:52:29;5.90;99.90
12682;DHT22;6405;59.208;18.216;2023-04-24T07:54:55;5.90;99.90
12682;DHT22;6405;59.208;18.216;2023-04-24T07:57:24;5.90;99.90
12682;DHT22;6405;59.208;18.216;2023-04-24T07:59:50;6.00;99.90
12682;DHT22;6405;59.208;18.216;2023-04-24T08:02:16;6.00;99.90
12682;DHT22;6405;59.208;18.216;2023-04-24T08:04:42;6.00;99.90
12682;DHT22;6405;59.208;18.216;2023-04-24T08:07:07;6.00;99.90
12682;DHT22;6405;59.208;18.216;2023-04-24T08:09:33;6.00;99.90
12682;DHT22;6405;59.208;18.216;2023-04-24T08:11:59;6.00;99.90
12682;DHT22;6405;59.208;18.216;2023-04-24T08:14:25;6.10;99.90
12682;DHT22;6405;59.208;18.216;2023-04-24T08:16:52;6.30;99.90
12682;DHT22;6405;59.208;18.216;2023-04-24T08:19:17;6.40;99.90
12682;DHT22;6405;59.208;18.216;2023-04-24T08:21:43;6.50;99.90
12682;DHT22;6405;59.208;18.216;2023-04-24T08:24:09;6.60;99.90
12682;DHT22;6405;59.208;18.216;2023-04-24T08:26:34;6.60;99.90
12682;DHT22;6405;59.208;18.216;2023-04-24T08:29:00;6.60;99.90
12682;DHT22;6405;59.208;18.216;2023-04-24T08:31:26;6.60;99.90
12682;DHT22;6405;59.208;18.216;2023-04-24T08:33:52;6.60;99.90
12682;DHT22;6405;59.208;18.216;2023-04-24T08:36:17;6.60;99.90
12682;DHT22;6405;59.208;18.216;2023-04-24T08:38:43;6.50;99.90
12682;DHT22;6405;59.208;18.216;2023-04-24T08:41:09;6.60;99.90
12682;DHT22;6405;59.208;18.216;2023-04-24T08:43:35;6.60;99.90
12682;DHT22;6405;59.208;18.216;2023-04-24T08:46:04;6.60;99.90
12682;DHT22;6405;59.208;18.216;2023-04-24T08:48:30;6.70;99.90
12682;DHT22;6405;59.208;18.216;2023-04-24T08:50:57;6.70;99.90
12682;DHT22;6405;59.208;18.216;2023-04-24T08:53:24;6.60;99.90
12682;DHT22;6405;59.208;18.216;2023-04-24T08:55:51;6.60;99.90
12682;DHT22;6405;59.208;18.216;2023-04-24T08:58:19;6.60;99.90
12682;DHT22;6405;59.208;18.216;2023-04-24T09:00:45;6.60;99.90
12682;DHT22;6405;59.208;18.216;2023-04-24T09:03:16;6.60;99.90
12682;DHT22;6405;59.208;18.216;2023-04-24T09:05:43;6.60;99.90
12682;DHT22;6405;59.208;18.216;2023-04-24T09:08:12;6.70;99.90
12682;DHT22;6405;59.208;18.216;2023-04-24T09:10:39;6.70;99.90
12682;DHT22;6405;59.208;18.216;2023-04-24T09:13:05;6.70;99.90
12682;DHT22;6405;59.208;18.216;2023-04-24T09:15:31;6.60;99.90
12682;DHT22;6405;59.208;18.216;2023-04-24T09:17:57;6.60;99.90
12682;DHT22;6405;59.208;18.216;2023-04-24T09:20:23;6.70;99.90
12682;DHT22;6405;59.208;18.216;2023-04-24T09:22:54;6.80;99.90
12682;DHT22;6405;59.208;18.216;2023-04-24T09:25:21;6.80;99.90
12682;DHT22;6405;59.208;18.216;2023-04-24T09:27:47;6.70;99.90
12682;DHT22;6405;59.208;18.216;2023-04-24T09:30:13;6.80;99.90
12682;DHT22;6405;59.208;18.216;2023-04-24T09:32:38;6.80;99.90
12682;DHT22;6405;59.208;18.216;2023-04-24T09:35:13;6.80;99.90
12682;DHT22;6405;59.208;18.216;2023-04-24T09:37:45;6.80;99.90
12682;DHT22;6405;59.208;18.216;2023-04-24T09:40:19;6.70;99.90
12682;DHT22;6405;59.208;18.216;2023-04-24T09:42:55;6.70;99.90
12682;DHT22;6405;59.208;18.216;2023-04-24T09:45:36;6.70;99.90
12682;DHT22;6405;59.208;18.216;2023-04-24T09:48:02;6.70;99.90
12682;DHT22;6405;59.208;18.216;2023-04-24T09:50:30;6.80;99.90
12682;DHT22;6405;59.208;18.216;2023-04-24T09:53:02;6.80;99.90
12682;DHT22;6405;59.208;18.216;2023-04-24T09:55:28;6.80;99.90
12682;DHT22;6405;59.208;18.216;2023-04-24T09:57:56;6.80;99.90
12682;DHT22;6405;59.208;18.216;2023-04-24T10:00:26;6.80;99.90
12682;DHT22;6405;59.208;18.216;2023-04-24T10:02:56;6.90;99.90
12682;DHT22;6405;59.208;18.216;2023-04-24T10:05:31;6.90;99.90
12682;DHT22;6405;59.208;18.216;2023-04-24T10:10:27;7.00;99.90
12682;DHT22;6405;59.208;18.216;2023-04-24T10:12:53;6.90;99.90
12682;DHT22;6405;59.208;18.216;2023-04-24T10:15:20;6.90;99.90
12682;DHT22;6405;59.208;18.216;2023-04-24T10:17:50;6.90;99.90
12682;DHT22;6405;59.208;18.216;2023-04-24T10:20:28;6.90;99.90
12682;DHT22;6405;59.208;18.216;2023-04-24T10:22:56;7.00;99.90
12682;DHT22;6405;59.208;18.216;2023-04-24T10:25:28;7.00;99.90
12682;DHT22;6405;59.208;18.216;2023-04-24T10:27:55;7.00;99.90
12682;DHT22;6405;59.208;18.216;2023-04-24T10:30:23;7.10;99.90
12682;DHT22;6405;59.208;18.216;2023-04-24T10:32:49;7.10;99.90
12682;DHT22;6405;59.208;18.216;2023-04-24T10:35:15;7.20;99.90
12682;DHT22;6405;59.208;18.216;2023-04-24T10:37:49;7.10;99.90
12682;DHT22;6405;59.208;18.216;2023-04-24T10:40:19;7.10;99.90
12682;DHT22;6405;59.208;18.216;2023-04-24T10:42:52;7.00;99.90
12682;DHT22;6405;59.208;18.216;2023-04-24T10:45:22;6.90;99.90
12682;DHT22;6405;59.208;18.216;2023-04-24T10:47:52;6.90;99.90
12682;DHT22;6405;59.208;18.216;2023-04-24T10:50:18;7.00;99.90
12682;DHT22;6405;59.208;18.216;2023-04-24T10:52:45;7.00;99.90
12682;DHT22;6405;59.208;18.216;2023-04-24T10:55:12;7.00;99.90
12682;DHT22;6405;59.208;18.216;2023-04-24T10:57:39;7.00;99.90
12682;DHT22;6405;59.208;18.216;2023-04-24T11:00:21;7.10;99.90
12682;DHT22;6405;59.208;18.216;2023-04-24T11:02:48;7.00;99.90
12682;DHT22;6405;59.208;18.216;2023-04-24T11:05:16;6.90;99.90
12682;DHT22;6405;59.208;18.216;2023-04-24T11:08:11;6.90;99.90
12682;DHT22;6405;59.208;18.216;2023-04-24T11:10:45;6.80;99.90
12682;DHT22;6405;59.208;18.216;2023-04-24T11:13:14;6.70;99.90
12682;DHT22;6405;59.208;18.216;2023-04-24T11:15:41;6.50;99.90
12682;DHT22;6405;59.208;18.216;2023-04-24T11:18:13;6.40;99.90
12682;DHT22;6405;59.208;18.216;2023-04-24T11:20:42;6.50;99.90
12682;DHT22;6405;59.208;18.216;2023-04-24T11:23:08;6.50;99.90
12682;DHT22;6405;59.208;18.216;2023-04-24T11:25:35;6.50;99.90
12682;DHT22;6405;59.208;18.216;2023-04-24T11:28:05;6.50;99.90
12682;DHT22;6405;59.208;18.216;2023-04-24T11:30:32;6.50;99.90
12682;DHT22;6405;59.208;18.216;2023-04-24T11:33:03;6.50;99.90
12682;DHT22;6405;59.208;18.216;2023-04-24T11:35:29;6.50;99.90
12682;DHT22;6405;59.208;18.216;2023-04-24T11:38:00;6.60;99.90
12682;DHT22;6405;59.208;18.216;2023-04-24T11:40:28;6.80;99.90
12682;DHT22;6405;59.208;18.216;2023-04-24T11:42:54;6.80;99.90
12682;DHT22;6405;59.208;18.216;2023-04-24T11:45:26;6.80;99.90
12682;DHT22;6405;59.208;18.216;2023-04-24T11:47:54;6.80;99.90
12682;DHT22;6405;59.208;18.216;2023-04-24T11:50:22;6.70;99.90
12682;DHT22;6405;59.208;18.216;2023-04-24T11:52:50;6.70;99.90
12682;DHT22;6405;59.208;18.216;2023-04-24T11:57:46;6.60;99.90
12682;DHT22;6405;59.208;18.216;2023-04-24T12:00:17;6.60;99.90
12682;DHT22;6405;59.208;18.216;2023-04-24T12:02:44;6.60;99.90
12682;DHT22;6405;59.208;18.216;2023-04-24T12:05:19;6.50;99.90
12682;DHT22;6405;59.208;18.216;2023-04-24T12:07:45;6.60;99.90
12682;DHT22;6405;59.208;18.216;2023-04-24T12:10:11;6.50;99.90
12682;DHT22;6405;59.208;18.216;2023-04-24T12:12:36;6.50;99.90
12682;DHT22;6405;59.208;18.216;2023-04-24T12:15:07;6.60;99.90
12682;DHT22;6405;59.208;18.216;2023-04-24T12:17:34;6.70;99.90
12682;DHT22;6405;59.208;18.216;2023-04-24T12:20:04;6.60;99.90
12682;DHT22;6405;59.208;18.216;2023-04-24T12:22:49;6.60;99.90
12682;DHT22;6405;59.208;18.216;2023-04-24T12:25:17;6.60;99.90
12682;DHT22;6405;59.208;18.216;2023-04-24T12:27:44;6.50;99.90
12682;DHT22;6405;59.208;18.216;2023-04-24T12:30:13;6.50;99.90
12682;DHT22;6405;59.208;18.216;2023-04-24T12:32:58;6.50;99.90
12682;DHT22;6405;59.208;18.216;2023-04-24T12:35:27;6.40;99.90
12682;DHT22;6405;59.208;18.216;2023-04-24T12:37:53;6.40;99.90
12682;DHT22;6405;59.208;18.216;2023-04-24T12:40:20;6.40;99.90
12682;DHT22;6405;59.208;18.216;2023-04-24T12:42:50;6.40;99.90
12682;DHT22;6405;59.208;18.216;2023-04-24T12:45:17;6.30;99.90
12682;DHT22;6405;59.208;18.216;2023-04-24T12:47:44;6.30;99.90
12682;DHT22;6405;59.208;18.216;2023-04-24T12:50:14;6.20;99.90
12682;DHT22;6405;59.208;18.216;2023-04-24T12:52:41;6.20;99.90
12682;DHT22;6405;59.208;18.216;2023-04-24T12:55:07;6.20;99.90
12682;DHT22;6405;59.208;18.216;2023-04-24T12:57:34;6.20;99.90
12682;DHT22;6405;59.208;18.216;2023-04-24T13:00:00;6.20;99.90
12682;DHT22;6405;59.208;18.216;2023-04-24T13:02:28;6.30;99.90
12682;DHT22;6405;59.208;18.216;2023-04-24T13:04:57;6.40;99.90
12682;DHT22;6405;59.208;18.216;2023-04-24T13:07:23;6.40;99.90
12682;DHT22;6405;59.208;18.216;2023-04-24T13:09:51;6.40;99.90
12682;DHT22;6405;59.208;18.216;2023-04-24T13:12:16;6.30;99.90
12682;DHT22;6405;59.208;18.216;2023-04-24T13:14:42;6.10;99.90
12682;DHT22;6405;59.208;18.216;2023-04-24T13:17:08;6.10;99.90
12682;DHT22;6405;59.208;18.216;2023-04-24T13:19:39;6.00;99.90
12682;DHT22;6405;59.208;18.216;2023-04-24T13:22:05;5.90;99.90
12682;DHT22;6405;59.208;18.216;2023-04-24T13:24:31;5.90;99.90
12682;DHT22;6405;59.208;18.216;2023-04-24T13:26:58;6.00;99.90
12682;DHT22;6405;59.208;18.216;2023-04-24T13:29:23;6.00;99.90
12682;DHT22;6405;59.208;18.216;2023-04-24T13:31:53;6.10;99.90
12682;DHT22;6405;59.208;18.216;2023-04-24T13:34:23;6.00;99.90
12682;DHT22;6405;59.208;18.216;2023-04-24T13:36:54;6.00;99.90
12682;DHT22;6405;59.208;18.216;2023-04-24T13:39:20;6.00;99.90
12682;DHT22;6405;59.208;18.216;2023-04-24T13:41:46;6.00;99.90
12682;DHT22;6405;59.208;18.216;2023-04-24T13:44:14;6.00;99.90
12682;DHT22;6405;59.208;18.216;2023-04-24T13:46:40;6.00;99.90
12682;DHT22;6405;59.208;18.216;2023-04-24T13:49:06;6.00;99.90
12682;DHT22;6405;59.208;18.216;2023-04-24T13:51:32;6.00;99.90
12682;DHT22;6405;59.208;18.216;2023-04-24T13:53:58;6.00;99.90
12682;DHT22;6405;59.208;18.216;2023-04-24T13:56:25;6.00;99.90
12682;DHT22;6405;59.208;18.216;2023-04-24T13:58:51;6.00;99.90
12682;DHT22;6405;59.208;18.216;2023-04-24T14:01:19;6.10;99.90
12682;DHT22;6405;59.208;18.216;2023-04-24T14:03:46;6.10;99.90
12682;DHT22;6405;59.208;18.216;2023-04-24T14:06:11;6.20;99.90
12682;DHT22;6405;59.208;18.216;2023-04-24T14:08:37;6.20;99.90
12682;DHT22;6405;59.208;18.216;2023-04-24T14:11:03;6.20;99.90
12682;DHT22;6405;59.208;18.216;2023-04-24T14:13:29;6.10;99.90
12682;DHT22;6405;59.208;18.216;2023-04-24T14:15:54;6.00;99.90
12682;DHT22;6405;59.208;18.216;2023-04-24T14:18:20;6.00;99.90
12682;DHT22;6405;59.208;18.216;2023-04-24T14:20:46;5.90;99.90
12682;DHT22;6405;59.208;18.216;2023-04-24T14:23:11;5.80;99.90
12682;DHT22;6405;59.208;18.216;2023-04-24T14:25:37;5.90;99.90
12682;DHT22;6405;59.208;18.216;2023-04-24T14:28:03;5.80;99.90
12682;DHT22;6405;59.208;18.216;2023-04-24T14:30:29;5.80;99.90
12682;DHT22;6405;59.208;18.216;2023-04-24T14:32:54;5.80;99.90
12682;DHT22;6405;59.208;18.216;2023-04-24T14:35:20;5.80;99.90
12682;DHT22;6405;59.208;18.216;2023-04-24T14:37:46;5.90;99.90
12682;DHT22;6405;59.208;18.216;2023-04-24T14:40:13;5.80;99.90
12682;DHT22;6405;59.208;18.216;2023-04-24T14:42:39;5.80;99.90
12682;DHT22;6405;59.208;18.216;2023-04-24T14:45:06;5.80;99.90
12682;DHT22;6405;59.208;18.216;2023-04-24T14:47:32;5.90;99.90
12682;DHT22;6405;59.208;18.216;2023-04-24T14:49:58;5.70;99.90
12682;DHT22;6405;59.208;18.216;2023-04-24T14:52:24;5.70;99.90
12682;DHT22;6405;59.208;18.216;2023-04-24T14:54:49;5.60;99.90
12682;DHT22;6405;59.208;18.216;2023-04-24T14:57:15;5.50;99.90
12682;DHT22;6405;59.208;18.216;2023-04-24T14:59:41;5.50;99.90
12682;DHT22;6405;59.208;18.216;2023-04-24T15:02:06;5.60;99.90
12682;DHT22;6405;59.208;18.216;2023-04-24T15:04:32;5.50;99.90
12682;DHT22;6405;59.208;18.216;2023-04-24T15:06:58;5.40;99.90
12682;DHT22;6405;59.208;18.216;2023-04-24T15:09:24;5.30;99.90
12682;DHT22;6405;59.208;18.216;2023-04-24T15:11:51;5.20;99.90
12682;DHT22;6405;59.208;18.216;2023-04-24T15:14:17;5.30;99.90
12682;DHT22;6405;59.208;18.216;2023-04-24T15:16:43;5.30;99.90
12682;DHT22;6405;59.208;18.216;2023-04-24T15:19:09;5.20;99.90
12682;DHT22;6405;59.208;18.216;2023-04-24T15:21:38;5.20;99.90
12682;DHT22;6405;59.208;18.216;2023-04-24T15:24:05;5.30;99.90
12682;DHT22;6405;59.208;18.216;2023-04-24T15:26:31;5.20;99.90
12682;DHT22;6405;59.208;18.216;2023-04-24T15:28:56;5.10;99.90
12682;DHT22;6405;59.208;18.216;2023-04-24T15:31:22;5.00;99.90
12682;DHT22;6405;59.208;18.216;2023-04-24T15:33:49;4.80;99.90
12682;DHT22;6405;59.208;18.216;2023-04-24T15:36:18;4.80;99.90
12682;DHT22;6405;59.208;18.216;2023-04-24T15:38:44;4.90;99.90
12682;DHT22;6405;59.208;18.216;2023-04-24T15:41:11;4.90;99.90
12682;DHT22;6405;59.208;18.216;2023-04-24T15:43:37;4.80;99.90
12682;DHT22;6405;59.208;18.216;2023-04-24T15:46:04;4.80;99.90
12682;DHT22;6405;59.208;18.216;2023-04-24T15:48:30;4.80;99.90